Wheat Ridge, CO (80033)

10:36 PM MST on December 25, 2014 (GMT -0700)
Crown Hill Park | Change Station
CLOSE
Current Station
Personal Weather Station
Location: Wheat Ridge, CO
Elevation: 5480 ft
Nearby Weather Stations
Active Advisory: Winter Storm Warning Active Notice: Local Storm Report

Elev 5480 ft 39.77 °N, 105.10 °W | Updated 1 minute ago

Snow
Snow
22.5 °F
Feels Like 13 °F
N
8.0
Wind Variable Wind from NE

Today
High -- | Low -- °F
--% Chance of Precip.
Yesterday
High -- | Low -- °F
Precip. -- in
7:19 AM 4:41 PM
Waxing Crescent, 22% visible
Pressure 29.87 in
Visibility 5.0 miles
Clouds
Windchill 13 °F
Dew Point 21 °F
Humidity 93%
Rainfall 0.00 in
Snow Depth Not available.
UV Not available.
Pollen .10 out of 12
Air Quality Not available.
Flu Activity Not available.
METAR KEIK 260515Z AUTO 02010KT 5SM -SN M05/M06 A2987 RMK AO2 T10511061

More Conditions Fewer Conditions

Pressure 29.87 in
Visibility 5.0 miles
Clouds
Windchill 13 °F
Dew Point 21 °F
Humidity 93%
Rainfall 0.00 in
Snow Depth Not available.
UV Not available.
Pollen .10 out of 12
Air Quality Not available.
Flu Activity Not available.
METAR KEIK 260515Z AUTO 02010KT 5SM -SN M05/M06 A2987 RMK AO2 T10511061

More Conditions Fewer Conditions

10-Day Weather Forecast

Almanac

Astronomy

Dec. 25, 2014 Rise Set
Actual Time
Civil Twilight
Nautical Twilight
Astronomical Twilight
Moon
Length of Visible Light
Length of Day
Tomorrow will be .
, % of the Moon is Illuminated

Today's Extremes

State Highs State Lows

Community

WunderPhotos

Upload Photos

1,780,549 photos uploaded!

WunderBlogs® & News

Nearby

Air Quality

  Air Quality AQ Index Pollutant
Not available.

Snow Depth

Station Depth Elevation

Earthquake Activity

City Distance Mag. Time & Date
Minimum magnitude displayed is 2.5.

Coastal Water Temperatures

Place Temperature

Nearby Weather Stations